Niles, New York
Current Conditions -  °F | °C
As of 3:54 PM on Thursday 18 Dec 2014 (Local Time) from KSYR Reporting Station
Light Snow Light Snow  
Wind Chill: 22°   Ceiling: 1900
Heat Index: 31°   Visibility: 3mi
Dew Point: 28°   Wind: 12mph
Humidity: 89%   Direction: 270°W
Pressure: 30.02"   Gusts: NA
Location:  42.8921°N, 76.3835°W
Report Text: KSYR 182054Z 27010KT 3SM -SN BR FEW012 OVC019 M01/M02 A3002 RMK AO2 SNB14 SLP166 P0000 60001 T10061022 53010
Loading
Personal Weather Stations






























Interactive Weather Map New forecast layout! Learn more

10-Day Weather Forecast

Advertisements
Track Severe Weather on mobile